sensor_id;sensor_type;location;lat;lon;timestamp;temperature;humidity
4584;DHT22;2304;47.606;12.186;2023-11-21T00:02:31;9.10;91.30
4584;DHT22;2304;47.606;12.186;2023-11-21T00:07:33;9.20;90.80
4584;DHT22;2304;47.606;12.186;2023-11-21T00:12:35;9.10;90.60
4584;DHT22;2304;47.606;12.186;2023-11-21T00:17:38;9.10;90.30
4584;DHT22;2304;47.606;12.186;2023-11-21T00:22:40;9.10;89.90
4584;DHT22;2304;47.606;12.186;2023-11-21T00:27:43;9.10;90.30
4584;DHT22;2304;47.606;12.186;2023-11-21T00:32:46;9.10;90.50
4584;DHT22;2304;47.606;12.186;2023-11-21T00:37:48;9.10;90.70
4584;DHT22;2304;47.606;12.186;2023-11-21T00:42:50;9.10;90.40
4584;DHT22;2304;47.606;12.186;2023-11-21T00:47:53;9.10;90.30
4584;DHT22;2304;47.606;12.186;2023-11-21T00:52:55;9.10;90.00
4584;DHT22;2304;47.606;12.186;2023-11-21T00:57:56;9.00;89.90
4584;DHT22;2304;47.606;12.186;2023-11-21T01:03:00;9.00;90.80
4584;DHT22;2304;47.606;12.186;2023-11-21T01:08:03;9.00;90.70
4584;DHT22;2304;47.606;12.186;2023-11-21T01:13:05;9.00;90.50
4584;DHT22;2304;47.606;12.186;2023-11-21T01:18:09;9.10;90.50
4584;DHT22;2304;47.606;12.186;2023-11-21T01:23:10;9.00;90.50
4584;DHT22;2304;47.606;12.186;2023-11-21T01:28:12;9.00;90.40
4584;DHT22;2304;47.606;12.186;2023-11-21T01:33:15;9.00;90.00
4584;DHT22;2304;47.606;12.186;2023-11-21T01:38:17;8.90;90.50
4584;DHT22;2304;47.606;12.186;2023-11-21T01:43:19;8.90;90.30
4584;DHT22;2304;47.606;12.186;2023-11-21T01:48:23;8.80;90.70
4584;DHT22;2304;47.606;12.186;2023-11-21T01:53:25;8.70;90.60
4584;DHT22;2304;47.606;12.186;2023-11-21T01:58:30;8.60;90.90
4584;DHT22;2304;47.606;12.186;2023-11-21T02:03:34;8.50;92.10
4584;DHT22;2304;47.606;12.186;2023-11-21T02:08:36;8.40;92.60
4584;DHT22;2304;47.606;12.186;2023-11-21T02:13:38;8.40;92.60
4584;DHT22;2304;47.606;12.186;2023-11-21T02:18:44;8.40;93.00
4584;DHT22;2304;47.606;12.186;2023-11-21T02:23:49;8.40;92.80
4584;DHT22;2304;47.606;12.186;2023-11-21T02:28:52;8.30;92.70
4584;DHT22;2304;47.606;12.186;2023-11-21T02:33:54;8.40;92.80
4584;DHT22;2304;47.606;12.186;2023-11-21T02:38:57;8.40;91.90
4584;DHT22;2304;47.606;12.186;2023-11-21T02:43:59;8.40;91.90
4584;DHT22;2304;47.606;12.186;2023-11-21T02:49:01;8.40;91.90
4584;DHT22;2304;47.606;12.186;2023-11-21T02:54:05;8.40;91.90
4584;DHT22;2304;47.606;12.186;2023-11-21T02:59:08;8.50;91.80
4584;DHT22;2304;47.606;12.186;2023-11-21T03:04:10;8.50;91.40
4584;DHT22;2304;47.606;12.186;2023-11-21T03:09:21;8.60;91.00
4584;DHT22;2304;47.606;12.186;2023-11-21T03:14:23;8.70;90.70
4584;DHT22;2304;47.606;12.186;2023-11-21T03:19:24;8.70;90.70
4584;DHT22;2304;47.606;12.186;2023-11-21T03:24:28;8.70;89.80
4584;DHT22;2304;47.606;12.186;2023-11-21T03:29:29;8.80;89.80
4584;DHT22;2304;47.606;12.186;2023-11-21T03:34:31;8.80;89.60
4584;DHT22;2304;47.606;12.186;2023-11-21T03:39:34;8.80;89.40
4584;DHT22;2304;47.606;12.186;2023-11-21T03:44:36;8.80;89.10
4584;DHT22;2304;47.606;12.186;2023-11-21T03:49:38;8.80;89.20
4584;DHT22;2304;47.606;12.186;2023-11-21T03:54:41;8.80;89.60
4584;DHT22;2304;47.606;12.186;2023-11-21T03:59:43;8.90;89.40
4584;DHT22;2304;47.606;12.186;2023-11-21T04:04:45;8.90;88.70
4584;DHT22;2304;47.606;12.186;2023-11-21T04:09:49;8.90;88.40
4584;DHT22;2304;47.606;12.186;2023-11-21T04:14:51;8.90;88.30
4584;DHT22;2304;47.606;12.186;2023-11-21T04:19:52;9.00;88.20
4584;DHT22;2304;47.606;12.186;2023-11-21T04:24:56;9.00;88.30
4584;DHT22;2304;47.606;12.186;2023-11-21T04:29:58;9.00;88.00
4584;DHT22;2304;47.606;12.186;2023-11-21T04:34:59;9.00;88.40
4584;DHT22;2304;47.606;12.186;2023-11-21T04:40:03;9.00;88.70
4584;DHT22;2304;47.606;12.186;2023-11-21T04:45:08;9.00;88.50
4584;DHT22;2304;47.606;12.186;2023-11-21T04:50:11;9.00;88.30
4584;DHT22;2304;47.606;12.186;2023-11-21T04:55:15;8.90;89.40
4584;DHT22;2304;47.606;12.186;2023-11-21T05:00:17;8.90;88.30
4584;DHT22;2304;47.606;12.186;2023-11-21T05:05:19;8.80;88.50
4584;DHT22;2304;47.606;12.186;2023-11-21T05:10:22;8.80;88.50
4584;DHT22;2304;47.606;12.186;2023-11-21T05:15:24;8.90;88.80
4584;DHT22;2304;47.606;12.186;2023-11-21T05:20:28;8.80;88.50
4584;DHT22;2304;47.606;12.186;2023-11-21T05:25:31;8.90;88.30
4584;DHT22;2304;47.606;12.186;2023-11-21T05:30:33;9.00;88.10
4584;DHT22;2304;47.606;12.186;2023-11-21T05:35:35;9.00;87.40
4584;DHT22;2304;47.606;12.186;2023-11-21T05:40:38;8.90;87.30
4584;DHT22;2304;47.606;12.186;2023-11-21T05:45:40;8.80;87.60
4584;DHT22;2304;47.606;12.186;2023-11-21T05:50:42;8.80;87.80
4584;DHT22;2304;47.606;12.186;2023-11-21T05:55:45;8.80;87.90
4584;DHT22;2304;47.606;12.186;2023-11-21T06:00:47;8.80;88.10
4584;DHT22;2304;47.606;12.186;2023-11-21T06:05:48;8.70;88.30
4584;DHT22;2304;47.606;12.186;2023-11-21T06:10:52;8.70;88.70
4584;DHT22;2304;47.606;12.186;2023-11-21T06:15:54;8.70;88.60
4584;DHT22;2304;47.606;12.186;2023-11-21T06:20:56;8.70;89.10
4584;DHT22;2304;47.606;12.186;2023-11-21T06:26:00;8.70;89.30
4584;DHT22;2304;47.606;12.186;2023-11-21T06:31:03;8.80;89.70
4584;DHT22;2304;47.606;12.186;2023-11-21T06:36:06;8.80;89.30
4584;DHT22;2304;47.606;12.186;2023-11-21T06:41:09;8.70;89.10
4584;DHT22;2304;47.606;12.186;2023-11-21T06:46:12;8.70;89.50
4584;DHT22;2304;47.606;12.186;2023-11-21T06:51:15;8.80;89.30
4584;DHT22;2304;47.606;12.186;2023-11-21T06:56:18;8.90;89.30
4584;DHT22;2304;47.606;12.186;2023-11-21T07:01:20;8.90;89.00
4584;DHT22;2304;47.606;12.186;2023-11-21T07:06:22;8.80;89.00
4584;DHT22;2304;47.606;12.186;2023-11-21T07:11:25;8.80;89.30
4584;DHT22;2304;47.606;12.186;2023-11-21T07:16:27;8.90;89.10
4584;DHT22;2304;47.606;12.186;2023-11-21T07:21:30;8.90;88.70
4584;DHT22;2304;47.606;12.186;2023-11-21T07:26:34;8.80;89.10
4584;DHT22;2304;47.606;12.186;2023-11-21T07:31:36;8.80;89.10
4584;DHT22;2304;47.606;12.186;2023-11-21T07:36:38;8.80;88.90
4584;DHT22;2304;47.606;12.186;2023-11-21T07:41:41;8.80;89.30
4584;DHT22;2304;47.606;12.186;2023-11-21T07:46:48;8.90;89.20
4584;DHT22;2304;47.606;12.186;2023-11-21T07:51:51;8.90;88.90
4584;DHT22;2304;47.606;12.186;2023-11-21T07:56:54;8.90;89.10
4584;DHT22;2304;47.606;12.186;2023-11-21T08:01:56;8.90;88.20
4584;DHT22;2304;47.606;12.186;2023-11-21T08:06:58;9.00;88.40
4584;DHT22;2304;47.606;12.186;2023-11-21T08:12:01;9.00;88.20
4584;DHT22;2304;47.606;12.186;2023-11-21T08:17:03;9.00;87.90
4584;DHT22;2304;47.606;12.186;2023-11-21T08:22:05;9.00;87.20
4584;DHT22;2304;47.606;12.186;2023-11-21T08:27:09;9.00;87.20
4584;DHT22;2304;47.606;12.186;2023-11-21T08:32:11;9.10;87.10
4584;DHT22;2304;47.606;12.186;2023-11-21T08:37:14;9.10;87.00
4584;DHT22;2304;47.606;12.186;2023-11-21T08:42:18;9.10;87.40
4584;DHT22;2304;47.606;12.186;2023-11-21T08:47:19;9.10;87.40
4584;DHT22;2304;47.606;12.186;2023-11-21T08:52:21;9.10;87.50
4584;DHT22;2304;47.606;12.186;2023-11-21T08:57:25;9.10;87.40
4584;DHT22;2304;47.606;12.186;2023-11-21T09:02:27;9.20;87.40
4584;DHT22;2304;47.606;12.186;2023-11-21T09:07:29;9.30;87.40
4584;DHT22;2304;47.606;12.186;2023-11-21T09:12:32;9.40;87.70
4584;DHT22;2304;47.606;12.186;2023-11-21T09:17:35;9.40;87.70
4584;DHT22;2304;47.606;12.186;2023-11-21T09:22:37;9.50;86.90
4584;DHT22;2304;47.606;12.186;2023-11-21T09:27:40;9.50;86.60
4584;DHT22;2304;47.606;12.186;2023-11-21T09:32:42;9.50;85.90
4584;DHT22;2304;47.606;12.186;2023-11-21T09:37:45;9.50;85.20
4584;DHT22;2304;47.606;12.186;2023-11-21T09:42:53;9.50;85.20
4584;DHT22;2304;47.606;12.186;2023-11-21T09:47:56;9.60;84.60
4584;DHT22;2304;47.606;12.186;2023-11-21T09:53:03;9.60;84.90
4584;DHT22;2304;47.606;12.186;2023-11-21T09:58:09;9.60;84.60
4584;DHT22;2304;47.606;12.186;2023-11-21T10:03:13;9.60;84.90
4584;DHT22;2304;47.606;12.186;2023-11-21T10:08:15;9.70;85.20
4584;DHT22;2304;47.606;12.186;2023-11-21T10:13:18;9.60;85.90
4584;DHT22;2304;47.606;12.186;2023-11-21T10:18:20;9.70;85.90
4584;DHT22;2304;47.606;12.186;2023-11-21T10:23:26;9.80;85.30
4584;DHT22;2304;47.606;12.186;2023-11-21T10:28:29;9.80;84.90
4584;DHT22;2304;47.606;12.186;2023-11-21T10:33:31;9.80;84.90
4584;DHT22;2304;47.606;12.186;2023-11-21T10:38:35;9.80;84.90
4584;DHT22;2304;47.606;12.186;2023-11-21T10:43:45;9.80;84.90
4584;DHT22;2304;47.606;12.186;2023-11-21T10:48:52;9.90;85.00
4584;DHT22;2304;47.606;12.186;2023-11-21T10:53:54;9.80;84.40
4584;DHT22;2304;47.606;12.186;2023-11-21T10:58:58;9.90;84.30
4584;DHT22;2304;47.606;12.186;2023-11-21T11:04:00;9.90;83.70
4584;DHT22;2304;47.606;12.186;2023-11-21T11:09:03;10.00;83.00
4584;DHT22;2304;47.606;12.186;2023-11-21T11:14:07;10.00;82.70
4584;DHT22;2304;47.606;12.186;2023-11-21T11:19:11;10.00;81.30
4584;DHT22;2304;47.606;12.186;2023-11-21T11:24:44;10.10;79.90
4584;DHT22;2304;47.606;12.186;2023-11-21T11:30:11;10.00;78.60
4584;DHT22;2304;47.606;12.186;2023-11-21T11:35:24;10.10;79.80
4584;DHT22;2304;47.606;12.186;2023-11-21T11:40:38;10.30;80.30
4584;DHT22;2304;47.606;12.186;2023-11-21T11:45:43;10.30;78.90
4584;DHT22;2304;47.606;12.186;2023-11-21T11:51:02;10.30;79.30
4584;DHT22;2304;47.606;12.186;2023-11-21T11:56:23;10.30;78.50
4584;DHT22;2304;47.606;12.186;2023-11-21T12:01:27;10.30;76.80
4584;DHT22;2304;47.606;12.186;2023-11-21T12:06:33;10.20;75.80
4584;DHT22;2304;47.606;12.186;2023-11-21T12:11:37;10.20;76.50
4584;DHT22;2304;47.606;12.186;2023-11-21T12:16:40;10.10;77.40
4584;DHT22;2304;47.606;12.186;2023-11-21T12:21:43;10.20;78.60
4584;DHT22;2304;47.606;12.186;2023-11-21T12:26:45;10.20;77.20
4584;DHT22;2304;47.606;12.186;2023-11-21T12:31:50;10.20;78.20
4584;DHT22;2304;47.606;12.186;2023-11-21T12:36:52;10.20;78.40
4584;DHT22;2304;47.606;12.186;2023-11-21T12:41:55;10.30;79.30
4584;DHT22;2304;47.606;12.186;2023-11-21T12:46:59;10.30;79.70
4584;DHT22;2304;47.606;12.186;2023-11-21T12:52:01;10.40;80.20
4584;DHT22;2304;47.606;12.186;2023-11-21T12:57:04;10.50;78.00
4584;DHT22;2304;47.606;12.186;2023-11-21T13:02:12;10.50;77.20
4584;DHT22;2304;47.606;12.186;2023-11-21T13:07:16;10.50;75.60
4584;DHT22;2304;47.606;12.186;2023-11-21T13:12:22;10.50;76.60
4584;DHT22;2304;47.606;12.186;2023-11-21T13:17:26;10.50;77.10
4584;DHT22;2304;47.606;12.186;2023-11-21T13:22:28;10.60;77.10
4584;DHT22;2304;47.606;12.186;2023-11-21T13:27:31;10.60;77.10
4584;DHT22;2304;47.606;12.186;2023-11-21T13:32:36;10.60;76.80
4584;DHT22;2304;47.606;12.186;2023-11-21T13:37:38;10.60;76.80
4584;DHT22;2304;47.606;12.186;2023-11-21T13:42:40;10.60;77.20
4584;DHT22;2304;47.606;12.186;2023-11-21T13:47:43;10.70;75.80
4584;DHT22;2304;47.606;12.186;2023-11-21T13:52:46;10.70;75.70
4584;DHT22;2304;47.606;12.186;2023-11-21T13:57:47;10.70;75.80
4584;DHT22;2304;47.606;12.186;2023-11-21T14:02:53;10.80;76.70
4584;DHT22;2304;47.606;12.186;2023-11-21T14:07:59;10.80;76.40
4584;DHT22;2304;47.606;12.186;2023-11-21T14:13:04;11.00;76.60
4584;DHT22;2304;47.606;12.186;2023-11-21T14:18:08;11.00;76.00
4584;DHT22;2304;47.606;12.186;2023-11-21T14:23:11;10.90;75.80
4584;DHT22;2304;47.606;12.186;2023-11-21T14:28:13;10.90;76.30
4584;DHT22;2304;47.606;12.186;2023-11-21T14:33:16;10.90;76.60
4584;DHT22;2304;47.606;12.186;2023-11-21T14:38:18;10.80;77.20
4584;DHT22;2304;47.606;12.186;2023-11-21T14:43:20;10.70;77.70
4584;DHT22;2304;47.606;12.186;2023-11-21T14:48:23;10.70;78.10
4584;DHT22;2304;47.606;12.186;2023-11-21T14:53:42;10.60;78.20
4584;DHT22;2304;47.606;12.186;2023-11-21T14:58:54;10.60;78.30
4584;DHT22;2304;47.606;12.186;2023-11-21T15:03:58;10.50;77.70
4584;DHT22;2304;47.606;12.186;2023-11-21T15:09:00;10.40;77.30
4584;DHT22;2304;47.606;12.186;2023-11-21T15:14:20;10.20;77.90
4584;DHT22;2304;47.606;12.186;2023-11-21T15:19:27;10.20;77.90
4584;DHT22;2304;47.606;12.186;2023-11-21T15:24:29;9.90;77.80
4584;DHT22;2304;47.606;12.186;2023-11-21T15:29:31;10.00;78.40
4584;DHT22;2304;47.606;12.186;2023-11-21T15:34:34;10.00;78.80
4584;DHT22;2304;47.606;12.186;2023-11-21T15:39:36;10.00;78.90
4584;DHT22;2304;47.606;12.186;2023-11-21T15:44:38;9.90;78.90
4584;DHT22;2304;47.606;12.186;2023-11-21T15:49:42;9.90;79.10
4584;DHT22;2304;47.606;12.186;2023-11-21T15:54:43;9.80;79.30
4584;DHT22;2304;47.606;12.186;2023-11-21T15:59:46;9.80;79.70
4584;DHT22;2304;47.606;12.186;2023-11-21T16:04:49;9.80;79.90
4584;DHT22;2304;47.606;12.186;2023-11-21T16:09:51;9.80;80.30
4584;DHT22;2304;47.606;12.186;2023-11-21T16:14:53;9.60;79.10
4584;DHT22;2304;47.606;12.186;2023-11-21T16:19:56;9.50;78.60
4584;DHT22;2304;47.606;12.186;2023-11-21T16:24:58;9.50;77.90
4584;DHT22;2304;47.606;12.186;2023-11-21T16:30:00;9.40;78.30
4584;DHT22;2304;47.606;12.186;2023-11-21T16:35:06;9.50;79.00
4584;DHT22;2304;47.606;12.186;2023-11-21T16:40:10;9.40;79.00
4584;DHT22;2304;47.606;12.186;2023-11-21T16:45:12;9.30;79.20
4584;DHT22;2304;47.606;12.186;2023-11-21T16:50:16;9.30;79.80
4584;DHT22;2304;47.606;12.186;2023-11-21T16:55:17;9.30;80.70
4584;DHT22;2304;47.606;12.186;2023-11-21T17:00:20;9.30;81.10
4584;DHT22;2304;47.606;12.186;2023-11-21T17:05:24;9.20;81.20
4584;DHT22;2304;47.606;12.186;2023-11-21T17:10:26;9.10;81.30
4584;DHT22;2304;47.606;12.186;2023-11-21T17:15:28;9.10;81.40
4584;DHT22;2304;47.606;12.186;2023-11-21T17:20:31;9.10;81.50
4584;DHT22;2304;47.606;12.186;2023-11-21T17:25:33;9.00;82.40
4584;DHT22;2304;47.606;12.186;2023-11-21T17:30:34;9.00;83.10
4584;DHT22;2304;47.606;12.186;2023-11-21T17:35:40;9.00;82.60
4584;DHT22;2304;47.606;12.186;2023-11-21T17:40:42;9.00;81.70
4584;DHT22;2304;47.606;12.186;2023-11-21T17:45:45;8.90;82.60
4584;DHT22;2304;47.606;12.186;2023-11-21T17:50:48;8.90;82.90
4584;DHT22;2304;47.606;12.186;2023-11-21T17:55:50;9.00;82.80
4584;DHT22;2304;47.606;12.186;2023-11-21T18:00:52;9.00;82.80
4584;DHT22;2304;47.606;12.186;2023-11-21T18:05:55;9.00;82.80
4584;DHT22;2304;47.606;12.186;2023-11-21T18:10:58;9.00;83.60
4584;DHT22;2304;47.606;12.186;2023-11-21T18:16:00;9.00;83.70
4584;DHT22;2304;47.606;12.186;2023-11-21T18:21:03;9.00;83.10
4584;DHT22;2304;47.606;12.186;2023-11-21T18:26:05;9.00;82.60
4584;DHT22;2304;47.606;12.186;2023-11-21T18:31:06;9.00;82.60
4584;DHT22;2304;47.606;12.186;2023-11-21T18:36:10;9.00;82.80
4584;DHT22;2304;47.606;12.186;2023-11-21T18:41:11;8.90;82.90
4584;DHT22;2304;47.606;12.186;2023-11-21T18:46:20;8.90;82.90
4584;DHT22;2304;47.606;12.186;2023-11-21T18:51:23;8.90;82.60
4584;DHT22;2304;47.606;12.186;2023-11-21T18:56:25;8.80;82.80
4584;DHT22;2304;47.606;12.186;2023-11-21T19:01:30;8.90;83.60
4584;DHT22;2304;47.606;12.186;2023-11-21T19:06:33;8.90;84.30
4584;DHT22;2304;47.606;12.186;2023-11-21T19:11:35;8.90;83.90
4584;DHT22;2304;47.606;12.186;2023-11-21T19:16:36;8.90;83.60
4584;DHT22;2304;47.606;12.186;2023-11-21T19:21:39;8.80;82.80
4584;DHT22;2304;47.606;12.186;2023-11-21T19:26:41;8.70;82.70
4584;DHT22;2304;47.606;12.186;2023-11-21T19:31:45;8.70;83.40
4584;DHT22;2304;47.606;12.186;2023-11-21T19:36:48;8.70;83.40
4584;DHT22;2304;47.606;12.186;2023-11-21T19:41:50;8.70;83.40
4584;DHT22;2304;47.606;12.186;2023-11-21T19:46:52;8.80;83.70
4584;DHT22;2304;47.606;12.186;2023-11-21T19:51:55;8.80;83.80
4584;DHT22;2304;47.606;12.186;2023-11-21T19:56:57;8.80;84.30
4584;DHT22;2304;47.606;12.186;2023-11-21T20:02:04;8.90;88.40
4584;DHT22;2304;47.606;12.186;2023-11-21T20:07:08;8.90;85.30
4584;DHT22;2304;47.606;12.186;2023-11-21T20:12:09;8.80;84.00
4584;DHT22;2304;47.606;12.186;2023-11-21T20:17:12;8.80;83.80
4584;DHT22;2304;47.606;12.186;2023-11-21T20:22:16;8.80;83.90
4584;DHT22;2304;47.606;12.186;2023-11-21T20:27:18;8.70;84.80
4584;DHT22;2304;47.606;12.186;2023-11-21T20:32:20;8.70;84.70
4584;DHT22;2304;47.606;12.186;2023-11-21T20:37:26;8.60;84.40
4584;DHT22;2304;47.606;12.186;2023-11-21T20:42:27;8.60;84.60
4584;DHT22;2304;47.606;12.186;2023-11-21T20:47:29;8.50;85.20
4584;DHT22;2304;47.606;12.186;2023-11-21T20:52:34;8.50;85.80
4584;DHT22;2304;47.606;12.186;2023-11-21T20:57:36;8.60;85.80
4584;DHT22;2304;47.606;12.186;2023-11-21T21:02:38;8.60;85.30
4584;DHT22;2304;47.606;12.186;2023-11-21T21:07:41;8.60;85.40
4584;DHT22;2304;47.606;12.186;2023-11-21T21:12:43;8.70;84.80
4584;DHT22;2304;47.606;12.186;2023-11-21T21:17:45;8.70;84.40
4584;DHT22;2304;47.606;12.186;2023-11-21T21:22:48;8.60;84.60
4584;DHT22;2304;47.606;12.186;2023-11-21T21:27:51;8.60;84.70
4584;DHT22;2304;47.606;12.186;2023-11-21T21:32:54;8.60;85.00
4584;DHT22;2304;47.606;12.186;2023-11-21T21:37:59;8.60;84.00
4584;DHT22;2304;47.606;12.186;2023-11-21T21:43:01;8.60;84.10
4584;DHT22;2304;47.606;12.186;2023-11-21T21:48:02;8.60;84.00
4584;DHT22;2304;47.606;12.186;2023-11-21T21:53:06;8.50;83.70
4584;DHT22;2304;47.606;12.186;2023-11-21T21:58:12;8.40;84.20
4584;DHT22;2304;47.606;12.186;2023-11-21T22:03:14;8.40;87.60
4584;DHT22;2304;47.606;12.186;2023-11-21T22:08:17;8.50;85.90
4584;DHT22;2304;47.606;12.186;2023-11-21T22:13:19;8.40;84.20
4584;DHT22;2304;47.606;12.186;2023-11-21T22:18:21;8.50;84.60
4584;DHT22;2304;47.606;12.186;2023-11-21T22:23:24;8.50;84.80
4584;DHT22;2304;47.606;12.186;2023-11-21T22:28:26;8.50;84.70
4584;DHT22;2304;47.606;12.186;2023-11-21T22:33:28;8.50;85.00
4584;DHT22;2304;47.606;12.186;2023-11-21T22:38:31;8.50;84.80
4584;DHT22;2304;47.606;12.186;2023-11-21T22:43:33;8.50;84.80
4584;DHT22;2304;47.606;12.186;2023-11-21T22:48:35;8.50;84.40
4584;DHT22;2304;47.606;12.186;2023-11-21T22:53:38;8.40;84.00
4584;DHT22;2304;47.606;12.186;2023-11-21T22:58:40;8.40;85.20
4584;DHT22;2304;47.606;12.186;2023-11-21T23:03:42;8.40;85.20
4584;DHT22;2304;47.606;12.186;2023-11-21T23:08:46;8.40;85.10
4584;DHT22;2304;47.606;12.186;2023-11-21T23:13:48;8.40;84.30
4584;DHT22;2304;47.606;12.186;2023-11-21T23:18:50;8.40;83.80
4584;DHT22;2304;47.606;12.186;2023-11-21T23:23:54;8.30;83.40
4584;DHT22;2304;47.606;12.186;2023-11-21T23:28:57;8.30;84.00
4584;DHT22;2304;47.606;12.186;2023-11-21T23:33:59;8.20;83.10
4584;DHT22;2304;47.606;12.186;2023-11-21T23:39:02;8.10;82.40
4584;DHT22;2304;47.606;12.186;2023-11-21T23:44:05;8.10;82.80
4584;DHT22;2304;47.606;12.186;2023-11-21T23:49:07;8.10;82.40
4584;DHT22;2304;47.606;12.186;2023-11-21T23:54:10;8.10;82.60
4584;DHT22;2304;47.606;12.186;2023-11-21T23:59:12;8.10;82.50
